createdAt,value
2024-05-09T00:01:23.166Z,100.00
2024-05-09T00:03:53.434Z,100.00
2024-05-09T00:06:23.758Z,100.00
2024-05-09T00:08:54.053Z,100.00
2024-05-09T00:11:24.221Z,100.00
2024-05-09T00:13:54.768Z,100.00
2024-05-09T00:16:27.411Z,100.00
2024-05-09T00:18:57.576Z,100.00
2024-05-09T00:21:27.463Z,100.00
2024-05-09T00:23:57.663Z,100.00
2024-05-09T00:26:27.694Z,100.00
2024-05-09T00:28:57.935Z,100.00
2024-05-09T00:31:30.516Z,100.00
2024-05-09T00:34:01.068Z,100.00
2024-05-09T00:36:31.118Z,100.00
2024-05-09T00:39:01.240Z,100.00
2024-05-09T00:41:31.446Z,100.00
2024-05-09T00:44:02.727Z,100.00
2024-05-09T00:46:35.459Z,100.00
2024-05-09T00:49:05.800Z,100.00
2024-05-09T00:51:35.679Z,100.00
2024-05-09T00:54:06.043Z,100.00
2024-05-09T00:56:38.018Z,100.00
2024-05-09T00:59:09.593Z,100.00
2024-05-09T01:01:44.528Z,100.00
2024-05-09T01:04:15.238Z,100.00
2024-05-09T01:06:45.496Z,100.00
2024-05-09T01:09:15.848Z,100.00
2024-05-09T01:11:45.876Z,100.00
2024-05-09T01:14:16.329Z,100.00
2024-05-09T01:16:48.987Z,100.00
2024-05-09T01:19:25.870Z,100.00
2024-05-09T01:21:55.819Z,100.00
2024-05-09T01:24:28.526Z,100.00
2024-05-09T01:26:58.536Z,100.00
2024-05-09T01:29:28.912Z,100.00
2024-05-09T01:32:04.537Z,100.00
2024-05-09T01:34:35.190Z,100.00
2024-05-09T01:37:05.099Z,100.00
2024-05-09T01:39:38.082Z,100.00
2024-05-09T01:42:08.306Z,100.00
2024-05-09T01:44:38.448Z,100.00
2024-05-09T01:47:08.450Z,100.00
2024-05-09T01:49:40.151Z,100.00
2024-05-09T01:52:09.951Z,100.00
2024-05-09T01:54:42.652Z,100.00
2024-05-09T01:57:12.698Z,100.00
2024-05-09T01:59:42.928Z,100.00
2024-05-09T02:02:12.963Z,100.00
2024-05-09T02:04:43.714Z,100.00
2024-05-09T02:07:13.677Z,100.00
2024-05-09T02:09:46.301Z,100.00
2024-05-09T02:12:16.470Z,100.00
2024-05-09T02:14:46.905Z,100.00
2024-05-09T02:17:16.920Z,100.00
2024-05-09T02:19:47.052Z,100.00
2024-05-09T02:22:16.897Z,100.00
2024-05-09T02:24:49.545Z,100.00
2024-05-09T02:27:19.417Z,100.00
2024-05-09T02:29:49.246Z,100.00
2024-05-09T02:32:19.202Z,100.00
2024-05-09T02:34:46.588Z,100.00
2024-05-09T02:37:16.478Z,100.00
2024-05-09T02:39:46.428Z,100.00
2024-05-09T02:42:16.353Z,100.00
2024-05-09T02:44:43.610Z,100.00
2024-05-09T02:47:13.498Z,100.00
2024-05-09T02:49:41.064Z,100.00
2024-05-09T02:52:10.961Z,100.00
2024-05-09T02:54:38.716Z,100.00
2024-05-09T02:57:11.638Z,100.00
2024-05-09T02:59:38.855Z,100.00
2024-05-09T03:02:08.743Z,100.00
2024-05-09T03:04:36.127Z,100.00
2024-05-09T03:07:06.258Z,100.00
2024-05-09T03:09:33.565Z,100.00
2024-05-09T03:12:03.903Z,100.00
2024-05-09T03:14:34.010Z,100.00
2024-05-09T03:17:04.175Z,100.00
2024-05-09T03:19:31.650Z,100.00
2024-05-09T03:22:01.746Z,100.00
2024-05-09T03:24:29.181Z,100.00
2024-05-09T03:26:59.133Z,100.00
2024-05-09T03:29:26.494Z,100.00
2024-05-09T03:31:59.435Z,100.00
2024-05-09T03:34:26.916Z,100.00
2024-05-09T03:36:58.675Z,100.00
2024-05-09T03:42:15.968Z,100.00
2024-05-09T03:46:26.754Z,100.00
2024-05-09T03:48:54.508Z,100.00
2024-05-09T03:51:24.411Z,100.00
2024-05-09T03:53:51.705Z,100.00
2024-05-09T03:56:21.848Z,100.00
2024-05-09T03:58:49.036Z,100.00
2024-05-09T04:01:19.538Z,100.00
2024-05-09T04:03:49.855Z,100.00
2024-05-09T04:06:23.579Z,100.00
2024-05-09T04:08:51.020Z,100.00
2024-05-09T04:11:21.339Z,100.00
2024-05-09T04:13:48.948Z,100.00
2024-05-09T04:16:18.996Z,100.00
2024-05-09T04:18:46.339Z,100.00
2024-05-09T04:21:19.225Z,100.00
2024-05-09T04:23:46.520Z,100.00
2024-05-09T04:26:16.548Z,100.00
2024-05-09T04:28:44.348Z,100.00
2024-05-09T04:31:14.272Z,100.00
2024-05-09T04:33:41.564Z,100.00
2024-05-09T04:36:11.825Z,100.00
2024-05-09T04:38:42.491Z,100.00
2024-05-09T04:41:12.841Z,100.00
2024-05-09T04:43:40.212Z,100.00
2024-05-09T04:46:10.235Z,100.00
2024-05-09T04:48:37.677Z,100.00
2024-05-09T04:51:10.035Z,100.00
2024-05-09T04:53:37.640Z,100.00
2024-05-09T04:56:11.711Z,100.00
2024-05-09T04:58:39.152Z,100.00
2024-05-09T05:01:09.035Z,100.00
2024-05-09T05:03:36.922Z,100.00
2024-05-09T05:06:07.126Z,100.00
2024-05-09T05:08:35.164Z,100.00
2024-05-09T05:11:05.568Z,100.00
2024-05-09T05:13:38.634Z,100.00
2024-05-09T05:16:10.591Z,100.00
2024-05-09T05:18:38.818Z,100.00
2024-05-09T05:21:09.130Z,100.00
2024-05-09T05:23:37.072Z,100.00
2024-05-09T05:26:08.152Z,100.00
2024-05-09T05:28:38.445Z,100.00
2024-05-09T05:31:08.407Z,100.00
2024-05-09T05:33:36.647Z,100.00
2024-05-09T05:36:07.201Z,100.00
2024-05-09T05:38:34.672Z,100.00
2024-05-09T05:41:04.906Z,100.00
2024-05-09T05:43:32.473Z,100.00
2024-05-09T05:46:05.083Z,100.00
2024-05-09T05:48:32.773Z,100.00
2024-05-09T05:51:04.525Z,100.00
2024-05-09T05:53:32.208Z,100.00
2024-05-09T05:56:02.199Z,100.00
2024-05-09T05:58:29.557Z,100.00
2024-05-09T06:00:59.595Z,100.00
2024-05-09T06:03:29.937Z,100.00
2024-05-09T06:06:00.119Z,100.00
2024-05-09T06:08:30.211Z,100.00
2024-05-09T06:11:00.628Z,100.00
2024-05-09T06:13:27.915Z,100.00
2024-05-09T06:15:59.950Z,100.00
2024-05-09T06:18:30.345Z,97.46
2024-05-09T06:21:00.505Z,95.27
2024-05-09T06:23:28.261Z,91.65
2024-05-09T06:25:58.238Z,87.23
2024-05-09T06:28:25.767Z,79.60
2024-05-09T06:30:55.863Z,78.27
2024-05-09T06:33:23.230Z,82.63
2024-05-09T06:35:59.383Z,81.65
2024-05-09T06:38:26.681Z,81.40
2024-05-09T06:40:56.999Z,79.80
2024-05-09T06:43:24.748Z,77.45
2024-05-09T06:45:55.137Z,74.93
2024-05-09T06:48:23.363Z,75.81
2024-05-09T06:50:55.972Z,73.91
2024-05-09T06:53:23.699Z,71.43
2024-05-09T06:55:53.829Z,70.11
2024-05-09T06:58:21.080Z,70.11
2024-05-09T07:00:51.408Z,68.10
2024-05-09T07:03:19.650Z,67.42
2024-05-09T07:05:50.182Z,63.01
2024-05-09T07:08:20.566Z,61.37
2024-05-09T07:10:50.579Z,62.67
2024-05-09T07:13:18.513Z,60.17
2024-05-09T07:15:49.121Z,58.89
2024-05-09T07:18:18.596Z,57.93
2024-05-09T07:20:50.642Z,57.31
2024-05-09T07:23:20.991Z,57.61
2024-05-09T07:25:51.316Z,56.83
2024-05-09T07:28:20.502Z,55.38
2024-05-09T07:30:50.949Z,56.03
2024-05-09T07:33:21.053Z,53.54
2024-05-09T07:35:53.066Z,51.37
2024-05-09T07:38:24.263Z,50.93
2024-05-09T07:40:54.507Z,50.82
2024-05-09T07:43:21.707Z,48.57
2024-05-09T07:45:54.411Z,49.03
2024-05-09T07:53:40.458Z,46.96
2024-05-09T07:56:15.286Z,46.68
2024-05-09T07:58:44.017Z,45.13
2024-05-09T08:01:14.342Z,44.07
2024-05-09T08:03:41.941Z,45.83
2024-05-09T08:06:12.238Z,45.13
2024-05-09T08:08:42.139Z,44.50
2024-05-09T08:11:12.304Z,41.27
2024-05-09T08:13:39.649Z,42.57
2024-05-09T08:16:10.404Z,44.06
2024-05-09T08:18:39.171Z,42.89
2024-05-09T08:21:09.338Z,40.97
2024-05-09T08:23:36.977Z,39.99
2024-05-09T08:26:09.884Z,41.42
2024-05-09T08:28:37.286Z,42.25
2024-05-09T08:31:07.865Z,40.10
2024-05-09T08:33:36.061Z,39.01
2024-05-09T08:36:06.769Z,39.48
2024-05-09T08:38:36.802Z,41.07
2024-05-09T08:41:07.316Z,40.84
2024-05-09T08:43:39.892Z,40.11
2024-05-09T08:47:29.581Z,40.05
2024-05-09T08:49:59.219Z,43.98
2024-05-09T08:52:29.589Z,39.55
2024-05-09T08:54:56.899Z,39.11
2024-05-09T08:57:29.509Z,38.58
2024-05-09T09:00:03.573Z,38.86
2024-05-09T09:02:40.750Z,39.81
2024-05-09T09:05:16.747Z,38.41
2024-05-09T09:07:48.697Z,39.19
2024-05-09T09:10:24.929Z,38.93
2024-05-09T09:13:05.438Z,35.44
2024-05-09T09:15:33.214Z,35.86
2024-05-09T09:20:36.750Z,36.07
2024-05-09T09:23:07.601Z,36.20
2024-05-09T09:25:34.911Z,35.48
2024-05-09T09:28:04.973Z,31.01
2024-05-09T09:30:36.982Z,30.06
2024-05-09T09:33:12.346Z,32.88
2024-05-09T09:35:40.760Z,34.04
2024-05-09T09:38:12.552Z,33.54
2024-05-09T09:40:49.558Z,32.57
2024-05-09T09:43:22.945Z,35.60
2024-05-09T09:45:52.915Z,35.54
2024-05-09T09:48:27.446Z,35.45
2024-05-09T09:50:56.794Z,36.49
2024-05-09T09:53:27.147Z,37.82
2024-05-09T09:55:55.965Z,37.92
2024-05-09T09:58:26.999Z,39.10
2024-05-09T10:00:54.602Z,37.65
2024-05-09T10:03:27.844Z,34.28
2024-05-09T10:05:55.854Z,35.00
2024-05-09T10:08:26.820Z,35.55
2024-05-09T10:10:55.440Z,35.24
2024-05-09T10:13:36.685Z,39.11
2024-05-09T10:16:09.130Z,40.15
2024-05-09T10:18:42.821Z,39.45
2024-05-09T10:21:20.273Z,36.76
2024-05-09T10:24:00.765Z,34.61
2024-05-09T10:26:34.796Z,31.20
2024-05-09T10:29:17.122Z,31.32
2024-05-09T10:31:46.186Z,32.34
2024-05-09T10:34:23.802Z,33.43
2024-05-09T10:36:54.972Z,35.36
2024-05-09T10:39:25.931Z,34.25
2024-05-09T10:41:53.207Z,32.97
2024-05-09T10:44:24.319Z,30.97
2024-05-09T10:46:54.884Z,31.41
2024-05-09T10:49:28.039Z,30.77
2024-05-09T10:51:55.805Z,29.55
2024-05-09T10:54:25.830Z,31.33
2024-05-09T10:56:57.018Z,32.92
2024-05-09T10:59:27.016Z,33.01
2024-05-09T11:01:54.449Z,32.08
2024-05-09T11:04:27.378Z,30.96
2024-05-09T11:06:56.403Z,29.98
2024-05-09T11:09:26.435Z,29.74
2024-05-09T11:11:54.852Z,29.92
2024-05-09T11:14:24.918Z,29.91
2024-05-09T11:16:59.248Z,29.80
2024-05-09T11:19:35.128Z,30.04
2024-05-09T11:22:03.074Z,30.48
2024-05-09T11:24:33.386Z,30.72
2024-05-09T11:27:03.231Z,29.75
2024-05-09T11:29:40.951Z,30.70
2024-05-09T11:32:11.626Z,30.20
2024-05-09T11:34:45.156Z,30.40
2024-05-09T11:37:14.228Z,29.65
2024-05-09T11:39:44.534Z,28.46
2024-05-09T11:42:12.577Z,28.42
2024-05-09T11:47:27.759Z,31.94
2024-05-09T11:50:00.955Z,31.06
2024-05-09T11:52:29.202Z,30.65
2024-05-09T11:54:59.876Z,31.72
2024-05-09T11:57:28.927Z,32.05
2024-05-09T12:00:00.220Z,33.04
2024-05-09T12:02:28.071Z,33.90
2024-05-09T12:05:01.793Z,34.92
2024-05-09T12:07:29.674Z,36.14
2024-05-09T12:09:59.582Z,36.58
2024-05-09T12:12:27.832Z,36.57
2024-05-09T12:14:57.940Z,36.68
2024-05-09T12:17:25.294Z,36.34
2024-05-09T12:19:55.386Z,37.42
2024-05-09T12:22:25.579Z,37.22
2024-05-09T12:24:55.938Z,36.54
2024-05-09T12:27:23.383Z,37.01
2024-05-09T12:29:53.441Z,37.16
2024-05-09T12:32:20.700Z,36.95
2024-05-09T12:34:50.707Z,37.47
2024-05-09T12:37:18.779Z,36.67
2024-05-09T12:39:51.819Z,36.63
2024-05-09T12:42:26.501Z,36.79
2024-05-09T12:44:58.333Z,37.42
2024-05-09T12:47:25.809Z,36.40
2024-05-09T12:49:55.992Z,37.77
2024-05-09T12:52:23.789Z,37.07
2024-05-09T12:54:56.557Z,37.89
2024-05-09T12:57:25.523Z,37.61
2024-05-09T12:59:55.551Z,37.83
2024-05-09T13:02:23.035Z,37.98
2024-05-09T13:04:53.162Z,38.01
2024-05-09T13:07:20.743Z,38.24
2024-05-09T13:09:50.960Z,37.99
2024-05-09T13:12:21.700Z,38.25
2024-05-09T13:14:53.250Z,36.93
2024-05-09T13:17:20.757Z,37.59
2024-05-09T13:19:50.757Z,37.48
2024-05-09T13:25:05.757Z,37.43
2024-05-09T13:27:35.804Z,37.97
2024-05-09T13:30:07.789Z,38.54
2024-05-09T13:32:39.403Z,38.77
2024-05-09T13:35:09.728Z,38.43
2024-05-09T13:37:37.121Z,38.12
2024-05-09T13:40:12.000Z,37.97
2024-05-09T13:42:45.614Z,38.29
2024-05-09T13:48:27.800Z,39.36
2024-05-09T13:50:55.484Z,39.29
2024-05-09T13:53:25.596Z,39.10
2024-05-09T13:55:53.097Z,40.11
2024-05-09T13:58:23.627Z,39.69
2024-05-09T14:00:51.322Z,39.60
2024-05-09T14:03:21.613Z,39.81
2024-05-09T14:05:52.409Z,39.30
2024-05-09T14:08:23.176Z,40.57
2024-05-09T14:10:51.285Z,39.60
2024-05-09T14:13:21.392Z,39.79
2024-05-09T14:15:49.255Z,40.40
2024-05-09T14:18:19.919Z,39.65
2024-05-09T14:20:47.226Z,39.42
2024-05-09T14:23:20.600Z,39.96
2024-05-09T14:25:51.774Z,40.23
2024-05-09T14:28:22.723Z,40.58
2024-05-09T14:30:51.164Z,39.98
2024-05-09T14:33:26.574Z,39.78
2024-05-09T14:35:54.480Z,39.59
2024-05-09T14:38:27.835Z,39.57
2024-05-09T14:40:55.696Z,39.82
2024-05-09T14:43:26.028Z,39.32
2024-05-09T14:45:53.808Z,39.67
2024-05-09T14:48:23.956Z,40.29
2024-05-09T14:50:51.596Z,39.93
2024-05-09T14:53:26.624Z,39.85
2024-05-09T14:55:57.502Z,40.33
2024-05-09T14:58:27.644Z,40.72
2024-05-09T15:00:55.025Z,41.00
2024-05-09T15:03:24.974Z,40.97
2024-05-09T15:05:53.264Z,41.32
2024-05-09T15:08:23.324Z,41.07
2024-05-09T15:10:50.928Z,40.96
2024-05-09T15:13:24.477Z,40.13
2024-05-09T15:15:52.426Z,40.96
2024-05-09T15:18:22.676Z,40.96
2024-05-09T15:20:52.791Z,40.67
2024-05-09T15:23:20.192Z,40.84
2024-05-09T15:25:50.191Z,40.36
2024-05-09T15:28:20.810Z,40.69
2024-05-09T15:30:50.730Z,40.63
2024-05-09T15:33:18.385Z,40.36
2024-05-09T15:35:48.453Z,40.03
2024-05-09T15:38:16.342Z,40.30
2024-05-09T15:40:46.582Z,39.88
2024-05-09T15:43:14.322Z,40.42
2024-05-09T15:45:47.202Z,40.17
2024-05-09T15:48:14.818Z,40.85
2024-05-09T15:50:45.291Z,40.67
2024-05-09T15:53:13.415Z,41.33
2024-05-09T15:55:44.474Z,41.28
2024-05-09T15:58:12.834Z,40.85
2024-05-09T16:00:48.846Z,40.75
2024-05-09T16:03:19.589Z,40.23
2024-05-09T16:05:49.972Z,40.51
2024-05-09T16:08:17.700Z,40.68
2024-05-09T16:10:49.460Z,40.93
2024-05-09T16:13:17.878Z,41.09
2024-05-09T16:15:51.208Z,41.56
2024-05-09T16:18:18.534Z,41.83
2024-05-09T16:20:50.211Z,41.44
2024-05-09T16:23:20.741Z,41.43
2024-05-09T16:25:48.644Z,41.17
2024-05-09T16:28:22.727Z,41.86
2024-05-09T16:30:54.075Z,41.73
2024-05-09T16:33:26.099Z,41.43
2024-05-09T16:35:53.813Z,42.17
2024-05-09T16:38:23.773Z,42.12
2024-05-09T16:40:51.691Z,42.32
2024-05-09T16:43:22.571Z,42.95
2024-05-09T16:45:52.706Z,43.82
2024-05-09T16:48:22.852Z,43.63
2024-05-09T16:50:50.228Z,43.34
2024-05-09T16:53:21.286Z,42.86
2024-05-09T16:55:49.094Z,42.79
2024-05-09T16:58:19.555Z,42.34
2024-05-09T17:00:47.038Z,42.65
2024-05-09T17:03:21.334Z,43.00
2024-05-09T17:05:50.490Z,43.43
2024-05-09T17:08:20.916Z,43.09
2024-05-09T17:10:49.499Z,43.21
2024-05-09T17:13:21.178Z,43.68
2024-05-09T17:15:52.363Z,43.68
2024-05-09T17:18:25.687Z,44.33
2024-05-09T17:20:55.873Z,44.58
2024-05-09T17:23:23.717Z,44.39
2024-05-09T17:25:54.089Z,43.21
2024-05-09T17:28:21.605Z,43.65
2024-05-09T17:30:52.330Z,43.66
2024-05-09T17:33:22.676Z,43.56
2024-05-09T17:35:52.957Z,44.19
2024-05-09T17:38:23.068Z,45.29
2024-05-09T17:40:53.673Z,45.89
2024-05-09T17:43:21.305Z,45.33
2024-05-09T17:45:51.634Z,44.83
2024-05-09T17:48:19.503Z,45.40
2024-05-09T17:50:52.369Z,46.88
2024-05-09T17:53:20.167Z,48.02
2024-05-09T17:55:54.058Z,47.61
2024-05-09T17:58:22.358Z,46.52
2024-05-09T18:00:53.009Z,47.00
2024-05-09T18:03:23.728Z,46.78
2024-05-09T18:05:56.701Z,47.73
2024-05-09T18:08:24.188Z,47.86
2024-05-09T18:10:55.565Z,47.90
2024-05-09T18:13:23.507Z,47.67
2024-05-09T18:15:53.677Z,48.51
2024-05-09T18:18:21.266Z,47.38
2024-05-09T18:20:51.385Z,47.55
2024-05-09T18:23:21.489Z,48.23
2024-05-09T18:28:39.668Z,48.69
2024-05-09T18:31:09.674Z,48.99
2024-05-09T18:33:37.146Z,49.49
2024-05-09T18:36:07.726Z,51.06
2024-05-09T18:38:38.954Z,49.86
2024-05-09T18:41:09.242Z,49.70
2024-05-09T18:43:44.948Z,50.58
2024-05-09T18:49:33.289Z,51.40
2024-05-09T18:52:00.835Z,51.39
2024-05-09T18:54:31.237Z,52.44
2024-05-09T18:56:58.530Z,52.66
2024-05-09T18:59:28.557Z,53.11
2024-05-09T19:01:56.042Z,53.85
2024-05-09T19:04:29.151Z,54.05
2024-05-09T19:06:56.961Z,54.79
2024-05-09T19:09:27.451Z,55.75
2024-05-09T19:11:55.248Z,56.34
2024-05-09T19:14:26.412Z,57.96
2024-05-09T19:16:54.297Z,59.69
2024-05-09T19:19:24.823Z,60.97
2024-05-09T19:21:57.552Z,61.54
2024-05-09T19:24:28.055Z,63.73
2024-05-09T19:26:56.381Z,65.46
2024-05-09T19:29:26.531Z,65.88
2024-05-09T19:31:54.000Z,67.38
2024-05-09T19:34:23.863Z,68.37
2024-05-09T19:36:51.451Z,68.46
2024-05-09T19:39:24.755Z,68.71
2024-05-09T19:41:52.611Z,70.07
2024-05-09T19:44:22.698Z,69.73
2024-05-09T19:46:50.095Z,69.00
2024-05-09T19:49:20.289Z,68.50
2024-05-09T19:51:47.670Z,68.66
2024-05-09T19:54:17.859Z,68.75
2024-05-09T19:56:48.173Z,69.11
2024-05-09T19:59:18.317Z,69.95
2024-05-09T20:01:45.748Z,70.33
2024-05-09T20:04:16.108Z,69.86
2024-05-09T20:06:43.530Z,69.98
2024-05-09T20:09:13.342Z,70.10
2024-05-09T20:11:40.707Z,70.39
2024-05-09T20:14:14.792Z,70.32
2024-05-09T20:16:44.238Z,70.46
2024-05-09T20:19:14.226Z,70.62
2024-05-09T20:21:42.245Z,71.80
2024-05-09T20:24:12.505Z,72.10
2024-05-09T20:26:40.428Z,72.89
2024-05-09T20:29:13.031Z,76.60
2024-05-09T20:31:41.268Z,78.60
2024-05-09T20:34:11.118Z,80.53
2024-05-09T20:36:38.477Z,81.29
2024-05-09T20:39:08.463Z,82.91
2024-05-09T20:41:37.138Z,82.87
2024-05-09T20:44:07.413Z,82.28
2024-05-09T20:46:37.384Z,84.18
2024-05-09T20:49:07.605Z,84.41
2024-05-09T20:51:35.055Z,84.32
2024-05-09T20:54:04.829Z,84.79
2024-05-09T20:56:32.333Z,85.79
2024-05-09T20:59:02.214Z,86.28
2024-05-09T21:01:29.711Z,87.77
2024-05-09T21:04:02.782Z,89.10
2024-05-09T21:06:30.117Z,90.15
2024-05-09T21:09:00.537Z,91.04
2024-05-09T21:11:28.010Z,91.98
2024-05-09T21:13:57.946Z,92.33
2024-05-09T21:16:25.503Z,93.70
2024-05-09T21:18:55.645Z,95.18
2024-05-09T21:21:25.553Z,96.12
2024-05-09T21:23:55.684Z,96.38
2024-05-09T21:26:23.847Z,96.99
2024-05-09T21:28:53.808Z,97.65
2024-05-09T21:31:21.289Z,98.70
2024-05-09T21:33:51.617Z,99.19
2024-05-09T21:36:19.047Z,98.80
2024-05-09T21:38:51.668Z,100.00
2024-05-09T21:41:18.850Z,100.00
2024-05-09T21:44:08.072Z,100.00
2024-05-09T21:46:35.478Z,100.00
2024-05-09T21:49:06.002Z,100.00
2024-05-09T21:51:33.459Z,100.00
2024-05-09T21:54:06.429Z,100.00
2024-05-09T21:56:33.769Z,100.00
2024-05-09T21:59:03.755Z,100.00
2024-05-09T22:01:32.365Z,100.00
2024-05-09T22:04:02.596Z,100.00
2024-05-09T22:06:29.902Z,100.00
2024-05-09T22:09:03.214Z,100.00
2024-05-09T22:11:33.236Z,100.00
2024-05-09T22:14:03.159Z,100.00
2024-05-09T22:16:33.422Z,100.00
2024-05-09T22:19:03.518Z,100.00
2024-05-09T22:21:31.012Z,100.00
2024-05-09T22:24:00.846Z,100.00
2024-05-09T22:26:28.257Z,100.00
2024-05-09T22:29:00.933Z,100.00
2024-05-09T22:31:28.495Z,100.00
2024-05-09T22:33:58.799Z,100.00
2024-05-09T22:36:26.134Z,100.00
2024-05-09T22:38:56.238Z,100.00
2024-05-09T22:41:23.516Z,100.00
2024-05-09T22:43:54.035Z,100.00
2024-05-09T22:46:24.107Z,100.00
2024-05-09T22:48:54.624Z,100.00
2024-05-09T22:51:22.255Z,100.00
2024-05-09T22:53:52.494Z,100.00
2024-05-09T22:56:27.269Z,100.00
2024-05-09T22:58:57.306Z,100.00
2024-05-09T23:01:27.817Z,100.00
2024-05-09T23:03:57.787Z,100.00
2024-05-09T23:06:25.392Z,100.00
2024-05-09T23:08:58.209Z,100.00
2024-05-09T23:11:25.535Z,100.00
2024-05-09T23:13:55.430Z,100.00
2024-05-09T23:16:22.888Z,100.00
2024-05-09T23:18:55.653Z,100.00
2024-05-09T23:21:23.374Z,100.00
2024-05-09T23:23:53.304Z,100.00
2024-05-09T23:26:20.848Z,100.00
2024-05-09T23:28:51.393Z,100.00
2024-05-09T23:31:18.728Z,100.00
2024-05-09T23:33:49.107Z,100.00
2024-05-09T23:36:19.306Z,100.00
2024-05-09T23:38:49.310Z,100.00
2024-05-09T23:41:16.495Z,100.00
2024-05-09T23:43:46.671Z,100.00
2024-05-09T23:46:14.039Z,100.00
2024-05-09T23:50:35.662Z,100.00
2024-05-09T23:53:05.845Z,100.00
2024-05-09T23:55:36.268Z,100.00
2024-05-09T23:58:03.675Z,100.00
